sensor_id;sensor_type;location;lat;lon;timestamp;P1;durP1;ratioP1;P2;durP2;ratioP2
5688;SDS011;2869;50.432;8.680;2023-04-25T00:01:35;19.20;;;12.37;;
5688;SDS011;2869;50.432;8.680;2023-04-25T00:04:02;18.57;;;12.20;;
5688;SDS011;2869;50.432;8.680;2023-04-25T00:06:30;20.80;;;11.93;;
5688;SDS011;2869;50.432;8.680;2023-04-25T00:08:57;16.53;;;11.40;;
5688;SDS011;2869;50.432;8.680;2023-04-25T00:11:25;19.20;;;12.10;;
5688;SDS011;2869;50.432;8.680;2023-04-25T00:13:52;21.23;;;11.40;;
5688;SDS011;2869;50.432;8.680;2023-04-25T00:16:19;19.70;;;10.70;;
5688;SDS011;2869;50.432;8.680;2023-04-25T00:18:45;18.10;;;11.87;;
5688;SDS011;2869;50.432;8.680;2023-04-25T00:21:16;16.80;;;11.83;;
5688;SDS011;2869;50.432;8.680;2023-04-25T00:23:43;15.37;;;10.17;;
5688;SDS011;2869;50.432;8.680;2023-04-25T00:26:10;19.93;;;11.10;;
5688;SDS011;2869;50.432;8.680;2023-04-25T00:28:39;21.60;;;11.33;;
5688;SDS011;2869;50.432;8.680;2023-04-25T00:31:05;20.70;;;11.37;;
5688;SDS011;2869;50.432;8.680;2023-04-25T00:33:32;22.43;;;11.50;;
5688;SDS011;2869;50.432;8.680;2023-04-25T00:35:59;15.77;;;10.37;;
5688;SDS011;2869;50.432;8.680;2023-04-25T00:38:26;16.97;;;11.00;;
5688;SDS011;2869;50.432;8.680;2023-04-25T00:40:53;19.40;;;10.70;;
5688;SDS011;2869;50.432;8.680;2023-04-25T00:43:20;13.17;;;9.70;;
5688;SDS011;2869;50.432;8.680;2023-04-25T00:45:48;15.83;;;10.63;;
5688;SDS011;2869;50.432;8.680;2023-04-25T00:48:18;21.27;;;10.60;;
5688;SDS011;2869;50.432;8.680;2023-04-25T00:50:49;13.30;;;9.40;;
5688;SDS011;2869;50.432;8.680;2023-04-25T00:53:18;17.07;;;11.10;;
5688;SDS011;2869;50.432;8.680;2023-04-25T00:55:44;18.20;;;10.70;;
5688;SDS011;2869;50.432;8.680;2023-04-25T00:58:11;18.63;;;10.70;;
5688;SDS011;2869;50.432;8.680;2023-04-25T01:00:38;18.17;;;9.87;;
5688;SDS011;2869;50.432;8.680;2023-04-25T01:03:07;16.03;;;10.00;;
5688;SDS011;2869;50.432;8.680;2023-04-25T01:05:34;20.23;;;9.47;;
5688;SDS011;2869;50.432;8.680;2023-04-25T01:08:01;18.13;;;10.60;;
5688;SDS011;2869;50.432;8.680;2023-04-25T01:10:28;20.10;;;10.40;;
5688;SDS011;2869;50.432;8.680;2023-04-25T01:12:55;20.53;;;11.57;;
5688;SDS011;2869;50.432;8.680;2023-04-25T01:15:21;19.87;;;11.10;;
5688;SDS011;2869;50.432;8.680;2023-04-25T01:17:48;18.23;;;10.87;;
5688;SDS011;2869;50.432;8.680;2023-04-25T01:20:16;20.03;;;11.27;;
5688;SDS011;2869;50.432;8.680;2023-04-25T01:22:45;18.90;;;10.97;;
5688;SDS011;2869;50.432;8.680;2023-04-25T01:25:12;16.10;;;10.70;;
5688;SDS011;2869;50.432;8.680;2023-04-25T01:27:39;16.43;;;11.50;;
5688;SDS011;2869;50.432;8.680;2023-04-25T01:30:07;17.73;;;11.33;;
5688;SDS011;2869;50.432;8.680;2023-04-25T01:32:34;24.53;;;11.90;;
5688;SDS011;2869;50.432;8.680;2023-04-25T01:35:04;20.97;;;11.43;;
5688;SDS011;2869;50.432;8.680;2023-04-25T01:37:34;16.43;;;10.83;;
5688;SDS011;2869;50.432;8.680;2023-04-25T01:40:03;23.63;;;10.93;;
5688;SDS011;2869;50.432;8.680;2023-04-25T01:42:31;18.80;;;11.70;;
5688;SDS011;2869;50.432;8.680;2023-04-25T01:44:57;22.73;;;10.40;;
5688;SDS011;2869;50.432;8.680;2023-04-25T01:47:24;17.10;;;11.30;;
5688;SDS011;2869;50.432;8.680;2023-04-25T01:49:51;21.60;;;11.63;;
5688;SDS011;2869;50.432;8.680;2023-04-25T01:52:18;18.97;;;11.20;;
5688;SDS011;2869;50.432;8.680;2023-04-25T01:54:44;26.53;;;11.97;;
5688;SDS011;2869;50.432;8.680;2023-04-25T01:57:13;16.10;;;11.33;;
5688;SDS011;2869;50.432;8.680;2023-04-25T01:59:39;15.60;;;11.83;;
5688;SDS011;2869;50.432;8.680;2023-04-25T02:02:08;20.10;;;12.03;;
5688;SDS011;2869;50.432;8.680;2023-04-25T02:04:34;18.63;;;12.50;;
5688;SDS011;2869;50.432;8.680;2023-04-25T02:07:01;21.03;;;12.17;;
5688;SDS011;2869;50.432;8.680;2023-04-25T02:09:29;21.47;;;12.03;;
5688;SDS011;2869;50.432;8.680;2023-04-25T02:11:55;16.97;;;11.53;;
5688;SDS011;2869;50.432;8.680;2023-04-25T02:14:23;20.33;;;11.80;;
5688;SDS011;2869;50.432;8.680;2023-04-25T02:16:50;17.83;;;11.37;;
5688;SDS011;2869;50.432;8.680;2023-04-25T02:19:17;27.43;;;13.20;;
5688;SDS011;2869;50.432;8.680;2023-04-25T02:21:43;22.93;;;13.20;;
5688;SDS011;2869;50.432;8.680;2023-04-25T02:24:10;23.57;;;12.63;;
5688;SDS011;2869;50.432;8.680;2023-04-25T02:26:37;26.90;;;13.37;;
5688;SDS011;2869;50.432;8.680;2023-04-25T02:29:03;26.30;;;14.10;;
5688;SDS011;2869;50.432;8.680;2023-04-25T02:31:32;19.77;;;12.10;;
5688;SDS011;2869;50.432;8.680;2023-04-25T02:33:58;23.03;;;13.53;;
5688;SDS011;2869;50.432;8.680;2023-04-25T02:36:25;20.93;;;12.43;;
5688;SDS011;2869;50.432;8.680;2023-04-25T02:38:52;25.13;;;12.03;;
5688;SDS011;2869;50.432;8.680;2023-04-25T02:41:19;19.80;;;11.43;;
5688;SDS011;2869;50.432;8.680;2023-04-25T02:43:45;21.13;;;12.10;;
5688;SDS011;2869;50.432;8.680;2023-04-25T02:46:12;23.43;;;11.77;;
5688;SDS011;2869;50.432;8.680;2023-04-25T02:48:41;20.47;;;11.40;;
5688;SDS011;2869;50.432;8.680;2023-04-25T02:51:08;24.60;;;12.20;;
5688;SDS011;2869;50.432;8.680;2023-04-25T02:53:35;26.20;;;10.90;;
5688;SDS011;2869;50.432;8.680;2023-04-25T02:56:01;15.80;;;10.20;;
5688;SDS011;2869;50.432;8.680;2023-04-25T02:58:28;18.10;;;11.40;;
5688;SDS011;2869;50.432;8.680;2023-04-25T03:00:55;19.23;;;11.20;;
5688;SDS011;2869;50.432;8.680;2023-04-25T03:03:21;29.53;;;12.30;;
5688;SDS011;2869;50.432;8.680;2023-04-25T03:05:50;19.63;;;11.17;;
5688;SDS011;2869;50.432;8.680;2023-04-25T03:08:17;20.23;;;10.47;;
5688;SDS011;2869;50.432;8.680;2023-04-25T03:10:44;16.27;;;11.27;;
5688;SDS011;2869;50.432;8.680;2023-04-25T03:13:11;19.70;;;10.90;;
5688;SDS011;2869;50.432;8.680;2023-04-25T03:15:38;17.77;;;9.30;;
5688;SDS011;2869;50.432;8.680;2023-04-25T03:18:05;21.57;;;9.33;;
5688;SDS011;2869;50.432;8.680;2023-04-25T03:20:31;16.90;;;8.57;;
5688;SDS011;2869;50.432;8.680;2023-04-25T03:22:59;14.63;;;8.37;;
5688;SDS011;2869;50.432;8.680;2023-04-25T03:25:26;17.07;;;7.63;;
5688;SDS011;2869;50.432;8.680;2023-04-25T03:27:53;14.23;;;8.03;;
5688;SDS011;2869;50.432;8.680;2023-04-25T03:30:20;17.63;;;7.60;;
5688;SDS011;2869;50.432;8.680;2023-04-25T03:32:47;17.37;;;7.40;;
5688;SDS011;2869;50.432;8.680;2023-04-25T03:35:13;17.03;;;7.43;;
5688;SDS011;2869;50.432;8.680;2023-04-25T03:37:40;15.73;;;6.57;;
5688;SDS011;2869;50.432;8.680;2023-04-25T03:40:11;14.13;;;6.83;;
5688;SDS011;2869;50.432;8.680;2023-04-25T03:42:38;18.10;;;6.43;;
5688;SDS011;2869;50.432;8.680;2023-04-25T03:45:05;29.83;;;6.87;;
5688;SDS011;2869;50.432;8.680;2023-04-25T03:47:33;17.33;;;6.17;;
5688;SDS011;2869;50.432;8.680;2023-04-25T03:50:00;22.70;;;8.10;;
5688;SDS011;2869;50.432;8.680;2023-04-25T03:52:27;14.30;;;7.20;;
5688;SDS011;2869;50.432;8.680;2023-04-25T03:54:54;20.40;;;6.70;;
5688;SDS011;2869;50.432;8.680;2023-04-25T03:57:22;14.67;;;6.87;;
5688;SDS011;2869;50.432;8.680;2023-04-25T03:59:49;16.40;;;7.23;;
5688;SDS011;2869;50.432;8.680;2023-04-25T04:02:15;12.00;;;6.27;;
5688;SDS011;2869;50.432;8.680;2023-04-25T04:04:42;15.10;;;6.77;;
5688;SDS011;2869;50.432;8.680;2023-04-25T04:07:09;16.80;;;7.30;;
5688;SDS011;2869;50.432;8.680;2023-04-25T04:09:36;14.47;;;6.37;;
5688;SDS011;2869;50.432;8.680;2023-04-25T04:12:02;13.07;;;6.63;;
5688;SDS011;2869;50.432;8.680;2023-04-25T04:14:31;18.90;;;7.30;;
5688;SDS011;2869;50.432;8.680;2023-04-25T04:16:58;13.53;;;7.63;;
5688;SDS011;2869;50.432;8.680;2023-04-25T04:19:25;15.70;;;6.53;;
5688;SDS011;2869;50.432;8.680;2023-04-25T04:21:51;13.90;;;6.50;;
5688;SDS011;2869;50.432;8.680;2023-04-25T04:24:18;19.30;;;7.83;;
5688;SDS011;2869;50.432;8.680;2023-04-25T04:26:45;19.83;;;6.70;;
5688;SDS011;2869;50.432;8.680;2023-04-25T04:29:12;10.80;;;7.67;;
5688;SDS011;2869;50.432;8.680;2023-04-25T04:31:47;13.17;;;7.30;;
5688;SDS011;2869;50.432;8.680;2023-04-25T04:34:14;17.80;;;7.30;;
5688;SDS011;2869;50.432;8.680;2023-04-25T04:36:41;15.47;;;7.23;;
5688;SDS011;2869;50.432;8.680;2023-04-25T04:39:08;18.93;;;7.77;;
5688;SDS011;2869;50.432;8.680;2023-04-25T04:41:35;22.90;;;7.00;;
5688;SDS011;2869;50.432;8.680;2023-04-25T04:44:02;17.07;;;8.03;;
5688;SDS011;2869;50.432;8.680;2023-04-25T04:46:29;16.80;;;7.80;;
5688;SDS011;2869;50.432;8.680;2023-04-25T04:48:57;20.93;;;7.70;;
5688;SDS011;2869;50.432;8.680;2023-04-25T04:51:24;15.50;;;7.70;;
5688;SDS011;2869;50.432;8.680;2023-04-25T04:53:50;15.53;;;7.57;;
5688;SDS011;2869;50.432;8.680;2023-04-25T04:56:17;22.63;;;8.37;;
5688;SDS011;2869;50.432;8.680;2023-04-25T04:58:45;14.90;;;6.87;;
5688;SDS011;2869;50.432;8.680;2023-04-25T05:01:13;14.33;;;7.90;;
5688;SDS011;2869;50.432;8.680;2023-04-25T05:03:41;16.80;;;7.53;;
5688;SDS011;2869;50.432;8.680;2023-04-25T05:06:09;20.83;;;7.33;;
5688;SDS011;2869;50.432;8.680;2023-04-25T05:08:36;18.43;;;8.30;;
5688;SDS011;2869;50.432;8.680;2023-04-25T05:11:02;12.30;;;6.60;;
5688;SDS011;2869;50.432;8.680;2023-04-25T05:13:29;12.93;;;7.20;;
5688;SDS011;2869;50.432;8.680;2023-04-25T05:15:56;12.87;;;6.53;;
5688;SDS011;2869;50.432;8.680;2023-04-25T05:18:22;12.00;;;6.27;;
5688;SDS011;2869;50.432;8.680;2023-04-25T05:20:49;9.47;;;5.57;;
5688;SDS011;2869;50.432;8.680;2023-04-25T05:23:17;9.53;;;6.17;;
5688;SDS011;2869;50.432;8.680;2023-04-25T05:25:43;14.90;;;6.03;;
5688;SDS011;2869;50.432;8.680;2023-04-25T05:28:10;13.20;;;5.50;;
5688;SDS011;2869;50.432;8.680;2023-04-25T05:30:38;10.03;;;4.80;;
5688;SDS011;2869;50.432;8.680;2023-04-25T05:33:05;9.47;;;5.40;;
5688;SDS011;2869;50.432;8.680;2023-04-25T05:35:32;7.20;;;4.87;;
5688;SDS011;2869;50.432;8.680;2023-04-25T05:37:59;7.60;;;3.93;;
5688;SDS011;2869;50.432;8.680;2023-04-25T05:40:27;6.40;;;4.67;;
5688;SDS011;2869;50.432;8.680;2023-04-25T05:42:54;10.67;;;4.60;;
5688;SDS011;2869;50.432;8.680;2023-04-25T05:45:20;9.37;;;5.30;;
5688;SDS011;2869;50.432;8.680;2023-04-25T05:47:47;10.50;;;4.70;;
5688;SDS011;2869;50.432;8.680;2023-04-25T05:50:14;12.33;;;4.50;;
5688;SDS011;2869;50.432;8.680;2023-04-25T05:52:40;6.33;;;4.20;;
5688;SDS011;2869;50.432;8.680;2023-04-25T05:55:07;7.93;;;3.93;;
5688;SDS011;2869;50.432;8.680;2023-04-25T05:57:36;6.97;;;4.40;;
5688;SDS011;2869;50.432;8.680;2023-04-25T06:00:06;6.93;;;4.60;;
5688;SDS011;2869;50.432;8.680;2023-04-25T06:02:34;14.13;;;5.00;;
5688;SDS011;2869;50.432;8.680;2023-04-25T06:05:01;14.40;;;4.37;;
5688;SDS011;2869;50.432;8.680;2023-04-25T06:07:29;4.93;;;4.30;;
5688;SDS011;2869;50.432;8.680;2023-04-25T06:09:56;8.13;;;4.47;;
5688;SDS011;2869;50.432;8.680;2023-04-25T06:12:23;8.40;;;4.68;;
5688;SDS011;2869;50.432;8.680;2023-04-25T06:14:51;9.67;;;4.33;;
5688;SDS011;2869;50.432;8.680;2023-04-25T06:17:17;14.30;;;5.30;;
5688;SDS011;2869;50.432;8.680;2023-04-25T06:19:44;5.93;;;4.17;;
5688;SDS011;2869;50.432;8.680;2023-04-25T06:22:10;13.33;;;5.23;;
5688;SDS011;2869;50.432;8.680;2023-04-25T06:24:37;10.20;;;5.13;;
5688;SDS011;2869;50.432;8.680;2023-04-25T06:27:04;9.00;;;5.27;;
5688;SDS011;2869;50.432;8.680;2023-04-25T06:29:30;10.77;;;4.87;;
5688;SDS011;2869;50.432;8.680;2023-04-25T06:31:58;14.27;;;5.90;;
5688;SDS011;2869;50.432;8.680;2023-04-25T06:34:25;12.03;;;5.87;;
5688;SDS011;2869;50.432;8.680;2023-04-25T06:36:51;10.40;;;5.33;;
5688;SDS011;2869;50.432;8.680;2023-04-25T06:39:18;9.90;;;6.07;;
5688;SDS011;2869;50.432;8.680;2023-04-25T06:41:48;12.10;;;5.93;;
5688;SDS011;2869;50.432;8.680;2023-04-25T06:44:14;9.97;;;6.20;;
5688;SDS011;2869;50.432;8.680;2023-04-25T06:46:41;9.13;;;5.83;;
5688;SDS011;2869;50.432;8.680;2023-04-25T06:49:09;9.40;;;5.75;;
5688;SDS011;2869;50.432;8.680;2023-04-25T06:51:35;8.70;;;5.60;;
5688;SDS011;2869;50.432;8.680;2023-04-25T06:54:02;14.83;;;6.60;;
5688;SDS011;2869;50.432;8.680;2023-04-25T06:56:30;9.30;;;5.37;;
5688;SDS011;2869;50.432;8.680;2023-04-25T06:58:57;8.07;;;6.40;;
5688;SDS011;2869;50.432;8.680;2023-04-25T07:01:25;21.60;;;6.80;;
5688;SDS011;2869;50.432;8.680;2023-04-25T07:03:51;13.17;;;6.37;;
5688;SDS011;2869;50.432;8.680;2023-04-25T07:06:19;11.97;;;5.73;;
5688;SDS011;2869;50.432;8.680;2023-04-25T07:08:46;10.03;;;6.60;;
5688;SDS011;2869;50.432;8.680;2023-04-25T07:11:13;10.27;;;5.63;;
5688;SDS011;2869;50.432;8.680;2023-04-25T07:13:40;12.20;;;6.03;;
5688;SDS011;2869;50.432;8.680;2023-04-25T07:16:06;14.90;;;5.60;;
5688;SDS011;2869;50.432;8.680;2023-04-25T07:18:33;11.13;;;5.53;;
5688;SDS011;2869;50.432;8.680;2023-04-25T07:21:00;10.67;;;6.20;;
5688;SDS011;2869;50.432;8.680;2023-04-25T07:23:28;9.83;;;5.97;;
5688;SDS011;2869;50.432;8.680;2023-04-25T07:25:55;13.00;;;6.60;;
5688;SDS011;2869;50.432;8.680;2023-04-25T07:28:21;12.77;;;6.27;;
5688;SDS011;2869;50.432;8.680;2023-04-25T07:30:48;10.80;;;6.20;;
5688;SDS011;2869;50.432;8.680;2023-04-25T07:33:15;13.83;;;6.50;;
5688;SDS011;2869;50.432;8.680;2023-04-25T07:35:41;12.27;;;6.67;;
5688;SDS011;2869;50.432;8.680;2023-04-25T07:38:08;12.20;;;7.43;;
5688;SDS011;2869;50.432;8.680;2023-04-25T07:40:36;10.60;;;6.07;;
5688;SDS011;2869;50.432;8.680;2023-04-25T07:43:03;15.97;;;6.60;;
5688;SDS011;2869;50.432;8.680;2023-04-25T07:45:29;9.47;;;5.70;;
5688;SDS011;2869;50.432;8.680;2023-04-25T07:47:56;11.90;;;6.50;;
5688;SDS011;2869;50.432;8.680;2023-04-25T07:50:23;8.63;;;6.00;;
5688;SDS011;2869;50.432;8.680;2023-04-25T07:52:49;9.57;;;5.60;;
5688;SDS011;2869;50.432;8.680;2023-04-25T07:55:16;9.03;;;6.53;;
5688;SDS011;2869;50.432;8.680;2023-04-25T07:57:44;11.23;;;6.90;;
5688;SDS011;2869;50.432;8.680;2023-04-25T08:00:11;12.83;;;6.43;;
5688;SDS011;2869;50.432;8.680;2023-04-25T08:02:40;10.80;;;6.53;;
5688;SDS011;2869;50.432;8.680;2023-04-25T08:05:06;10.93;;;7.20;;
5688;SDS011;2869;50.432;8.680;2023-04-25T08:07:36;10.23;;;6.57;;
5688;SDS011;2869;50.432;8.680;2023-04-25T08:10:03;12.07;;;6.93;;
5688;SDS011;2869;50.432;8.680;2023-04-25T08:12:31;10.57;;;6.70;;
5688;SDS011;2869;50.432;8.680;2023-04-25T08:14:59;12.07;;;6.40;;
5688;SDS011;2869;50.432;8.680;2023-04-25T08:17:26;10.90;;;6.70;;
5688;SDS011;2869;50.432;8.680;2023-04-25T08:19:52;15.50;;;6.80;;
5688;SDS011;2869;50.432;8.680;2023-04-25T08:22:20;11.57;;;7.60;;
5688;SDS011;2869;50.432;8.680;2023-04-25T08:24:46;9.17;;;6.87;;
5688;SDS011;2869;50.432;8.680;2023-04-25T08:27:13;11.80;;;7.00;;
5688;SDS011;2869;50.432;8.680;2023-04-25T08:29:41;9.77;;;6.63;;
5688;SDS011;2869;50.432;8.680;2023-04-25T08:32:09;11.53;;;6.73;;
5688;SDS011;2869;50.432;8.680;2023-04-25T08:34:35;9.50;;;6.53;;
5688;SDS011;2869;50.432;8.680;2023-04-25T08:37:04;7.40;;;6.13;;
5688;SDS011;2869;50.432;8.680;2023-04-25T08:39:31;10.77;;;5.87;;
5688;SDS011;2869;50.432;8.680;2023-04-25T08:41:57;13.07;;;6.83;;
5688;SDS011;2869;50.432;8.680;2023-04-25T08:44:24;9.13;;;6.27;;
5688;SDS011;2869;50.432;8.680;2023-04-25T08:46:50;16.77;;;6.67;;
5688;SDS011;2869;50.432;8.680;2023-04-25T08:49:20;7.50;;;6.60;;
5688;SDS011;2869;50.432;8.680;2023-04-25T08:51:47;12.70;;;6.30;;
5688;SDS011;2869;50.432;8.680;2023-04-25T08:54:15;13.73;;;6.67;;
5688;SDS011;2869;50.432;8.680;2023-04-25T08:56:43;10.17;;;6.90;;
5688;SDS011;2869;50.432;8.680;2023-04-25T08:59:12;10.47;;;6.63;;
5688;SDS011;2869;50.432;8.680;2023-04-25T09:01:38;12.20;;;7.43;;
5688;SDS011;2869;50.432;8.680;2023-04-25T09:04:05;12.20;;;6.10;;
5688;SDS011;2869;50.432;8.680;2023-04-25T09:06:33;13.50;;;6.97;;
5688;SDS011;2869;50.432;8.680;2023-04-25T09:09:01;12.23;;;6.97;;
5688;SDS011;2869;50.432;8.680;2023-04-25T09:11:30;11.80;;;7.60;;
5688;SDS011;2869;50.432;8.680;2023-04-25T09:14:09;10.90;;;6.60;;
5688;SDS011;2869;50.432;8.680;2023-04-25T09:16:45;19.20;;;7.00;;
5688;SDS011;2869;50.432;8.680;2023-04-25T09:19:24;7.10;;;6.40;;
5688;SDS011;2869;50.432;8.680;2023-04-25T09:21:55;16.20;;;6.83;;
5688;SDS011;2869;50.432;8.680;2023-04-25T09:24:29;14.40;;;6.63;;
5688;SDS011;2869;50.432;8.680;2023-04-25T09:26:57;8.03;;;5.93;;
5688;SDS011;2869;50.432;8.680;2023-04-25T09:29:28;11.43;;;5.50;;
5688;SDS011;2869;50.432;8.680;2023-04-25T09:32:06;8.17;;;5.90;;
5688;SDS011;2869;50.432;8.680;2023-04-25T09:34:38;6.90;;;4.93;;
5688;SDS011;2869;50.432;8.680;2023-04-25T09:37:09;6.17;;;4.40;;
5688;SDS011;2869;50.432;8.680;2023-04-25T09:39:36;6.47;;;4.40;;
5688;SDS011;2869;50.432;8.680;2023-04-25T09:42:03;5.53;;;4.23;;
5688;SDS011;2869;50.432;8.680;2023-04-25T09:44:30;10.83;;;4.47;;
5688;SDS011;2869;50.432;8.680;2023-04-25T09:46:57;7.43;;;4.13;;
5688;SDS011;2869;50.432;8.680;2023-04-25T09:49:24;8.20;;;4.13;;
5688;SDS011;2869;50.432;8.680;2023-04-25T09:51:55;5.30;;;4.00;;
5688;SDS011;2869;50.432;8.680;2023-04-25T09:54:24;6.77;;;3.83;;
5688;SDS011;2869;50.432;8.680;2023-04-25T09:56:52;11.20;;;4.57;;
5688;SDS011;2869;50.432;8.680;2023-04-25T09:59:19;8.73;;;3.80;;
5688;SDS011;2869;50.432;8.680;2023-04-25T10:01:48;10.73;;;4.50;;
5688;SDS011;2869;50.432;8.680;2023-04-25T10:04:16;4.73;;;4.20;;
5688;SDS011;2869;50.432;8.680;2023-04-25T10:06:47;7.83;;;4.00;;
5688;SDS011;2869;50.432;8.680;2023-04-25T10:09:15;7.77;;;4.10;;
5688;SDS011;2869;50.432;8.680;2023-04-25T10:11:44;10.80;;;4.40;;
5688;SDS011;2869;50.432;8.680;2023-04-25T10:14:12;13.77;;;4.53;;
5688;SDS011;2869;50.432;8.680;2023-04-25T10:16:40;4.87;;;3.53;;
5688;SDS011;2869;50.432;8.680;2023-04-25T10:19:07;9.03;;;3.57;;
5688;SDS011;2869;50.432;8.680;2023-04-25T10:21:35;8.30;;;3.40;;
5688;SDS011;2869;50.432;8.680;2023-04-25T10:24:05;8.37;;;4.10;;
5688;SDS011;2869;50.432;8.680;2023-04-25T10:26:32;12.57;;;3.90;;
5688;SDS011;2869;50.432;8.680;2023-04-25T10:29:02;8.50;;;3.47;;
5688;SDS011;2869;50.432;8.680;2023-04-25T10:31:29;7.27;;;2.70;;
5688;SDS011;2869;50.432;8.680;2023-04-25T10:33:56;6.20;;;2.70;;
5688;SDS011;2869;50.432;8.680;2023-04-25T10:36:24;10.60;;;3.70;;
5688;SDS011;2869;50.432;8.680;2023-04-25T10:38:52;9.17;;;3.63;;
5688;SDS011;2869;50.432;8.680;2023-04-25T10:41:19;3.93;;;3.40;;
5688;SDS011;2869;50.432;8.680;2023-04-25T10:43:48;8.63;;;3.37;;
5688;SDS011;2869;50.432;8.680;2023-04-25T10:46:17;12.13;;;3.97;;
5688;SDS011;2869;50.432;8.680;2023-04-25T10:48:48;7.97;;;3.80;;
5688;SDS011;2869;50.432;8.680;2023-04-25T10:51:17;6.63;;;3.27;;
5688;SDS011;2869;50.432;8.680;2023-04-25T10:53:56;9.10;;;3.40;;
5688;SDS011;2869;50.432;8.680;2023-04-25T10:56:25;9.40;;;3.97;;
5688;SDS011;2869;50.432;8.680;2023-04-25T10:59:02;8.68;;;3.40;;
5688;SDS011;2869;50.432;8.680;2023-04-25T11:01:37;10.80;;;3.90;;
5688;SDS011;2869;50.432;8.680;2023-04-25T11:04:05;4.90;;;3.10;;
5688;SDS011;2869;50.432;8.680;2023-04-25T11:06:35;4.73;;;3.20;;
5688;SDS011;2869;50.432;8.680;2023-04-25T11:09:12;10.47;;;3.53;;
5688;SDS011;2869;50.432;8.680;2023-04-25T11:11:39;5.60;;;3.07;;
5688;SDS011;2869;50.432;8.680;2023-04-25T11:14:05;6.57;;;3.37;;
5688;SDS011;2869;50.432;8.680;2023-04-25T11:16:32;6.10;;;3.40;;
5688;SDS011;2869;50.432;8.680;2023-04-25T11:19:00;8.27;;;3.20;;
5688;SDS011;2869;50.432;8.680;2023-04-25T11:21:27;6.33;;;3.60;;
5688;SDS011;2869;50.432;8.680;2023-04-25T11:23:56;6.43;;;3.30;;
5688;SDS011;2869;50.432;8.680;2023-04-25T11:26:24;13.23;;;3.70;;
5688;SDS011;2869;50.432;8.680;2023-04-25T11:28:50;5.97;;;3.60;;
5688;SDS011;2869;50.432;8.680;2023-04-25T11:31:19;11.10;;;3.90;;
5688;SDS011;2869;50.432;8.680;2023-04-25T11:33:46;7.57;;;3.43;;
5688;SDS011;2869;50.432;8.680;2023-04-25T11:36:14;7.60;;;3.63;;
5688;SDS011;2869;50.432;8.680;2023-04-25T11:38:41;13.70;;;3.87;;
5688;SDS011;2869;50.432;8.680;2023-04-25T11:41:07;7.33;;;3.63;;
5688;SDS011;2869;50.432;8.680;2023-04-25T11:43:34;8.87;;;3.67;;
5688;SDS011;2869;50.432;8.680;2023-04-25T11:46:01;10.53;;;3.80;;
5688;SDS011;2869;50.432;8.680;2023-04-25T11:48:36;7.93;;;4.13;;
5688;SDS011;2869;50.432;8.680;2023-04-25T11:51:03;6.47;;;4.00;;
5688;SDS011;2869;50.432;8.680;2023-04-25T11:53:32;8.87;;;4.00;;
5688;SDS011;2869;50.432;8.680;2023-04-25T11:55:58;10.50;;;3.90;;
5688;SDS011;2869;50.432;8.680;2023-04-25T11:58:25;6.70;;;3.93;;
5688;SDS011;2869;50.432;8.680;2023-04-25T12:00:52;3.70;;;3.30;;
5688;SDS011;2869;50.432;8.680;2023-04-25T12:03:19;9.83;;;4.43;;
5688;SDS011;2869;50.432;8.680;2023-04-25T12:05:48;4.17;;;3.33;;
5688;SDS011;2869;50.432;8.680;2023-04-25T12:08:16;6.73;;;4.03;;
5688;SDS011;2869;50.432;8.680;2023-04-25T12:10:44;5.73;;;3.67;;
5688;SDS011;2869;50.432;8.680;2023-04-25T12:13:18;9.43;;;4.67;;
5688;SDS011;2869;50.432;8.680;2023-04-25T12:15:46;8.57;;;4.53;;
5688;SDS011;2869;50.432;8.680;2023-04-25T12:18:13;8.27;;;4.30;;
5688;SDS011;2869;50.432;8.680;2023-04-25T12:20:41;7.93;;;4.07;;
5688;SDS011;2869;50.432;8.680;2023-04-25T12:23:08;7.50;;;3.97;;
5688;SDS011;2869;50.432;8.680;2023-04-25T12:25:36;8.63;;;3.80;;
5688;SDS011;2869;50.432;8.680;2023-04-25T12:28:12;8.70;;;3.90;;
5688;SDS011;2869;50.432;8.680;2023-04-25T12:30:52;6.43;;;4.00;;
5688;SDS011;2869;50.432;8.680;2023-04-25T12:33:19;11.17;;;4.53;;
5688;SDS011;2869;50.432;8.680;2023-04-25T12:35:46;8.67;;;4.30;;
5688;SDS011;2869;50.432;8.680;2023-04-25T12:38:19;9.73;;;4.47;;
5688;SDS011;2869;50.432;8.680;2023-04-25T12:40:47;8.03;;;4.00;;
5688;SDS011;2869;50.432;8.680;2023-04-25T12:43:15;10.77;;;3.90;;
5688;SDS011;2869;50.432;8.680;2023-04-25T12:45:41;5.33;;;3.80;;
5688;SDS011;2869;50.432;8.680;2023-04-25T12:48:08;7.30;;;4.00;;
5688;SDS011;2869;50.432;8.680;2023-04-25T12:50:35;9.30;;;4.37;;
5688;SDS011;2869;50.432;8.680;2023-04-25T12:53:02;9.63;;;3.77;;
5688;SDS011;2869;50.432;8.680;2023-04-25T12:55:28;10.93;;;4.07;;
5688;SDS011;2869;50.432;8.680;2023-04-25T12:57:55;5.00;;;3.90;;
5688;SDS011;2869;50.432;8.680;2023-04-25T13:00:23;15.10;;;4.10;;
5688;SDS011;2869;50.432;8.680;2023-04-25T13:02:51;6.03;;;3.63;;
5688;SDS011;2869;50.432;8.680;2023-04-25T13:05:18;7.40;;;4.20;;
5688;SDS011;2869;50.432;8.680;2023-04-25T13:07:44;6.70;;;4.17;;
5688;SDS011;2869;50.432;8.680;2023-04-25T13:10:11;6.90;;;3.80;;
5688;SDS011;2869;50.432;8.680;2023-04-25T13:12:37;5.17;;;4.07;;
5688;SDS011;2869;50.432;8.680;2023-04-25T13:15:05;9.77;;;4.50;;
5688;SDS011;2869;50.432;8.680;2023-04-25T13:17:35;7.90;;;3.60;;
5688;SDS011;2869;50.432;8.680;2023-04-25T13:20:02;10.33;;;3.87;;
5688;SDS011;2869;50.432;8.680;2023-04-25T13:22:31;5.63;;;3.43;;
5688;SDS011;2869;50.432;8.680;2023-04-25T13:24:57;6.13;;;3.20;;
5688;SDS011;2869;50.432;8.680;2023-04-25T13:27:24;11.70;;;3.90;;
5688;SDS011;2869;50.432;8.680;2023-04-25T13:29:51;12.90;;;3.77;;
5688;SDS011;2869;50.432;8.680;2023-04-25T13:32:17;5.97;;;3.20;;
5688;SDS011;2869;50.432;8.680;2023-04-25T13:34:45;7.57;;;3.30;;
5688;SDS011;2869;50.432;8.680;2023-04-25T13:37:12;7.03;;;3.43;;
5688;SDS011;2869;50.432;8.680;2023-04-25T13:39:39;4.03;;;3.10;;
5688;SDS011;2869;50.432;8.680;2023-04-25T13:42:05;4.30;;;2.60;;
5688;SDS011;2869;50.432;8.680;2023-04-25T13:44:32;10.00;;;3.40;;
5688;SDS011;2869;50.432;8.680;2023-04-25T13:46:59;5.43;;;3.83;;
5688;SDS011;2869;50.432;8.680;2023-04-25T13:49:25;5.90;;;3.57;;
5688;SDS011;2869;50.432;8.680;2023-04-25T13:51:53;6.93;;;3.47;;
5688;SDS011;2869;50.432;8.680;2023-04-25T13:54:20;5.87;;;2.87;;
5688;SDS011;2869;50.432;8.680;2023-04-25T13:56:47;12.43;;;3.10;;
5688;SDS011;2869;50.432;8.680;2023-04-25T13:59:15;6.70;;;2.77;;
5688;SDS011;2869;50.432;8.680;2023-04-25T14:01:42;7.47;;;3.20;;
5688;SDS011;2869;50.432;8.680;2023-04-25T14:04:08;6.77;;;2.90;;
5688;SDS011;2869;50.432;8.680;2023-04-25T14:06:35;9.73;;;3.17;;
5688;SDS011;2869;50.432;8.680;2023-04-25T14:09:03;8.47;;;3.70;;
5688;SDS011;2869;50.432;8.680;2023-04-25T14:11:31;6.80;;;3.50;;
5688;SDS011;2869;50.432;8.680;2023-04-25T14:13:58;8.20;;;3.20;;
5688;SDS011;2869;50.432;8.680;2023-04-25T14:16:24;9.70;;;3.63;;
5688;SDS011;2869;50.432;8.680;2023-04-25T14:18:51;9.20;;;3.33;;
5688;SDS011;2869;50.432;8.680;2023-04-25T14:21:19;14.80;;;4.03;;
5688;SDS011;2869;50.432;8.680;2023-04-25T14:23:46;8.43;;;3.33;;
5688;SDS011;2869;50.432;8.680;2023-04-25T14:26:14;7.73;;;3.87;;
5688;SDS011;2869;50.432;8.680;2023-04-25T14:28:41;6.27;;;3.03;;
5688;SDS011;2869;50.432;8.680;2023-04-25T14:31:07;6.57;;;3.43;;
5688;SDS011;2869;50.432;8.680;2023-04-25T14:33:34;6.07;;;3.60;;
5688;SDS011;2869;50.432;8.680;2023-04-25T14:36:02;8.80;;;3.10;;
5688;SDS011;2869;50.432;8.680;2023-04-25T14:38:29;11.50;;;3.20;;
5688;SDS011;2869;50.432;8.680;2023-04-25T14:40:55;9.10;;;3.20;;
5688;SDS011;2869;50.432;8.680;2023-04-25T14:43:23;7.97;;;3.07;;
5688;SDS011;2869;50.432;8.680;2023-04-25T14:45:50;7.50;;;3.20;;
5688;SDS011;2869;50.432;8.680;2023-04-25T14:48:17;6.13;;;3.07;;
5688;SDS011;2869;50.432;8.680;2023-04-25T14:50:44;10.53;;;3.10;;
5688;SDS011;2869;50.432;8.680;2023-04-25T14:53:11;8.57;;;3.50;;
5688;SDS011;2869;50.432;8.680;2023-04-25T14:55:37;7.27;;;3.40;;
5688;SDS011;2869;50.432;8.680;2023-04-25T14:58:05;8.80;;;3.27;;
5688;SDS011;2869;50.432;8.680;2023-04-25T15:00:33;5.47;;;3.17;;
5688;SDS011;2869;50.432;8.680;2023-04-25T15:03:00;5.10;;;3.30;;
5688;SDS011;2869;50.432;8.680;2023-04-25T15:05:27;9.00;;;3.20;;
5688;SDS011;2869;50.432;8.680;2023-04-25T15:07:53;9.00;;;4.13;;